Terminal Aerodrome Forecast
Issued by NWS

Home | Current Version | Previous Version | Text Only | Print | Product List | Glossary On
Versions: 1 2 3 4 5 6 7 8 9 10 11 12 13 14 15 16 17 18 19
878
FTUS41 KILN 112320
TAFLCK
TAF
KLCK 112320Z 1200/1224 29006KT P6SM BKN050
     FM120300 VRB03KT P6SM FEW050 SCT120
     FM121500 24008KT P6SM BKN050
     FM121900 26012KT P6SM OVC025
     FM122100 28014G24KT P6SM VCSH OVC025=

USA.gov is the U.S. government's official web portal to all federal, state and local government web resources and services.